Time;durP1;ratioP1;P1;durP2;ratioP2;P2;SDS_P1;SDS_P2;PMS_P1;PMS_P2;Temp;Humidity;BMP_temperature;BMP_pressure;BME280_temperature;BME280_humidity;BME280_pressure;Samples;Min_cycle;Max_cycle;Signal;HPM_P1;HPM_P2
2023/06/05 00:00:29;;;;;;;;;;;;;;;17.36;45.53;101334.47;5055742;28;1130;-49
2023/06/05 00:02:55;;;;;;;;;;;;;;;17.22;45.54;101334.09;5055186;28;1148;-49
2023/06/05 00:05:20;;;;;;;;;;;;;;;17.14;45.26;101331.84;5049669;28;1059;-50
2023/06/05 00:07:46;;;;;;;;;;;;;;;17.74;45.97;101338.81;5055828;28;956;-52
2023/06/05 00:10:13;;;;;;;;;;;;;;;17.61;47.22;101334.63;5059322;28;1965;-53
2023/06/05 00:12:38;;;;;;;;;;;;;;;17.42;46.56;101330.69;5059310;28;1219;-50
2023/06/05 00:15:04;;;;;;;;;;;;;;;17.30;45.80;101330.84;5059117;28;1025;-52
2023/06/05 00:17:30;;;;;;;;;;;;;;;17.20;45.39;101328.88;5045241;28;1052;-51
2023/06/05 00:19:58;;;;;;;;;;;;;;;18.28;46.34;101336.84;5059152;28;1148;-54
2023/06/05 00:22:24;;;;;;;;;;;;;;;17.57;47.19;101325.25;5059492;28;1238;-54
2023/06/05 00:24:50;;;;;;;;;;;;;;;17.35;46.38;101324.56;5058790;28;1165;-53
2023/06/05 00:27:15;;;;;;;;;;;;;;;17.21;45.87;101338.78;5055595;28;1055;-51
2023/06/05 00:29:41;;;;;;;;;;;;;;;18.21;46.45;101337.09;5038840;28;1914;-51
2023/06/05 00:32:06;;;;;;;;;;;;;;;17.53;47.09;101328.78;5055309;28;1032;-52
2023/06/05 00:34:32;;;;;;;;;;;;;;;17.37;46.29;101327.88;5041048;28;1146;-48
2023/06/05 00:36:57;;;;;;;;;;;;;;;17.27;45.89;101332.22;5045307;28;994;-52
2023/06/05 00:39:23;;;;;;;;;;;;;;;17.35;46.36;101319.06;5058527;28;1159;-49
2023/06/05 00:41:49;;;;;;;;;;;;;;;18.13;47.06;101321.94;5045676;28;1004;-50
2023/06/05 00:44:14;;;;;;;;;;;;;;;17.43;47.26;101321.31;5059005;28;1111;-53
2023/06/05 00:46:40;;;;;;;;;;;;;;;17.40;46.31;101321.84;5058527;28;1095;-50
2023/06/05 00:49:07;;;;;;;;;;;;;;;17.47;46.46;101319.69;5040221;28;1905;-51
2023/06/05 00:51:32;;;;;;;;;;;;;;;18.06;47.35;101321.38;5056161;28;1076;-51
2023/06/05 00:53:58;;;;;;;;;;;;;;;17.49;47.40;101319.41;5047084;28;1154;-53
2023/06/05 00:56:23;;;;;;;;;;;;;;;17.30;46.71;101317.13;5058624;28;1012;-52
2023/06/05 00:58:49;;;;;;;;;;;;;;;17.33;45.80;101311.09;5058343;28;1082;-51
2023/06/05 01:01:16;;;;;;;;;;;;;;;17.18;45.30;101300.84;5040097;28;1025;-51
2023/06/05 01:03:44;;;;;;;;;;;;;;;17.16;45.02;101303.00;5058595;28;1164;-54
2023/06/05 01:06:11;;;;;;;;;;;;;;;17.38;45.70;101305.63;5027715;28;1136;-54
2023/06/05 01:08:41;;;;;;;;;;;;;;;17.93;46.89;101308.09;5057967;28;1032;-52
2023/06/05 01:11:11;;;;;;;;;;;;;;;17.50;46.74;101305.44;5036748;28;1987;-53
2023/06/05 01:13:37;;;;;;;;;;;;;;;17.35;46.10;101300.66;5038078;28;1032;-51
2023/06/05 01:16:05;;;;;;;;;;;;;;;17.18;45.83;101297.25;5032725;28;1163;-51
2023/06/05 01:18:30;;;;;;;;;;;;;;;18.10;46.86;101308.72;5031653;28;1112;-50
2023/06/05 01:21:01;;;;;;;;;;;;;;;17.47;47.42;101299.63;5058320;28;1115;-49
2023/06/05 01:23:29;;;;;;;;;;;;;;;17.39;46.32;101300.94;5023883;28;1503;-50
2023/06/05 01:25:56;;;;;;;;;;;;;;;18.06;46.88;101302.09;5057956;28;1016;-47
2023/06/05 01:28:25;;;;;;;;;;;;;;;17.64;47.18;101294.75;5040026;28;1052;-50
2023/06/05 01:31:04;;;;;;;;;;;;;;;17.43;46.66;101313.06;5026435;28;2000;-53
2023/06/05 01:33:34;;;;;;;;;;;;;;;17.28;45.96;101309.13;5023592;28;1616;-53
2023/06/05 01:36:04;;;;;;;;;;;;;;;18.37;46.34;101304.94;5057592;28;1394;-51
2023/06/05 01:38:31;;;;;;;;;;;;;;;17.71;46.87;101306.34;5023681;28;1124;-51
2023/06/05 01:40:56;;;;;;;;;;;;;;;17.31;46.59;101305.03;5031444;28;837;-51
2023/06/05 01:43:22;;;;;;;;;;;;;;;17.19;45.97;101312.66;5018634;28;1175;-52
2023/06/05 01:45:48;;;;;;;;;;;;;;;17.24;45.34;101309.94;5039864;28;1076;-51
2023/06/05 01:48:13;;;;;;;;;;;;;;;18.03;46.37;101312.81;5057471;28;1159;-51
2023/06/05 01:50:42;;;;;;;;;;;;;;;17.42;46.57;101317.75;5039694;28;1913;-47
2023/06/05 01:53:07;;;;;;;;;;;;;;;17.27;45.93;101325.91;5037052;28;1139;-50
2023/06/05 01:55:33;;;;;;;;;;;;;;;17.07;45.81;101324.66;5037662;28;1231;-46
2023/06/05 01:57:59;;;;;;;;;;;;;;;17.86;46.73;101313.81;5051006;28;1122;-50
2023/06/05 02:00:25;;;;;;;;;;;;;;;17.39;46.76;101315.53;5027700;28;1119;-52
2023/06/05 02:02:50;;;;;;;;;;;;;;;17.19;46.04;101315.41;5057477;28;1120;-50
2023/06/05 02:05:17;;;;;;;;;;;;;;;17.88;46.49;101313.56;5048469;28;869;-50
2023/06/05 02:07:53;;;;;;;;;;;;;;;17.85;47.47;101312.19;5034357;28;1207;-49
2023/06/05 02:10:18;;;;;;;;;;;;;;;17.47;46.88;101302.38;5038718;28;1918;-50
2023/06/05 02:12:44;;;;;;;;;;;;;;;17.40;45.97;101306.19;5036307;28;1599;-52
2023/06/05 02:15:14;;;;;;;;;;;;;;;17.21;45.48;101307.72;5046627;28;1111;-54
2023/06/05 02:17:49;;;;;;;;;;;;;;;17.17;45.00;101299.16;5039727;28;997;-52
2023/06/05 02:20:17;;;;;;;;;;;;;;;18.11;46.66;101304.84;5037204;28;1175;-51
2023/06/05 02:22:44;;;;;;;;;;;;;;;17.52;47.21;101310.66;5049816;28;1005;-53
2023/06/05 02:25:10;;;;;;;;;;;;;;;17.30;46.32;101306.13;5049285;28;1082;-50
2023/06/05 02:27:36;;;;;;;;;;;;;;;17.18;45.60;101305.47;5037844;28;1200;-53
2023/06/05 02:30:02;;;;;;;;;;;;;;;17.66;46.03;101303.56;5026288;28;1914;-53
2023/06/05 02:32:28;;;;;;;;;;;;;;;17.97;47.27;101311.97;5037218;28;1218;-52
2023/06/05 02:34:56;;;;;;;;;;;;;;;17.43;46.97;101300.16;5039382;28;1028;-52
2023/06/05 02:37:26;;;;;;;;;;;;;;;17.36;46.14;101310.56;5038360;28;1266;-54
2023/06/05 02:39:52;;;;;;;;;;;;;;;18.23;47.07;101317.53;5056649;28;1124;-53
2023/06/05 02:42:19;;;;;;;;;;;;;;;17.60;47.33;101321.16;5036635;28;1175;-49
2023/06/05 02:44:45;;;;;;;;;;;;;;;17.41;46.57;101316.09;5031572;28;1056;-49
2023/06/05 02:47:11;;;;;;;;;;;;;;;17.26;45.93;101319.59;5038412;28;1330;-46
2023/06/05 02:49:37;;;;;;;;;;;;;;;18.41;47.07;101324.47;5038442;28;1914;-52
2023/06/05 02:52:03;;;;;;;;;;;;;;;17.68;47.26;101326.13;5055866;28;1071;-50
2023/06/05 02:54:29;;;;;;;;;;;;;;;17.47;46.72;101324.38;5025422;28;1128;-50
2023/06/05 02:57:00;;;;;;;;;;;;;;;17.33;45.89;101322.06;5025653;28;1196;-53
2023/06/05 02:59:27;;;;;;;;;;;;;;;18.19;46.78;101332.94;5038280;28;1151;-54
2023/06/05 03:01:54;;;;;;;;;;;;;;;17.65;47.57;101328.59;5038253;28;1125;-51
2023/06/05 03:04:23;;;;;;;;;;;;;;;17.42;46.73;101331.50;5037038;28;1144;-51
2023/06/05 03:06:56;;;;;;;;;;;;;;;18.16;46.94;101334.34;5027216;28;1142;-54
2023/06/05 03:09:23;;;;;;;;;;;;;;;17.79;47.27;101341.59;5038461;28;1973;-51
2023/06/05 03:11:49;;;;;;;;;;;;;;;17.53;46.82;101337.03;5038313;28;1235;-55
2023/06/05 03:14:15;;;;;;;;;;;;;;;17.34;46.15;101340.22;5037935;28;1534;-47
2023/06/05 03:16:43;;;;;;;;;;;;;;;17.29;45.41;101329.19;5055765;28;1080;-47
2023/06/05 03:19:11;;;;;;;;;;;;;;;17.96;47.14;101335.06;5036928;28;1697;-47
2023/06/05 03:21:39;;;;;;;;;;;;;;;17.50;47.03;101332.06;5056043;28;1123;-50
2023/06/05 03:24:06;;;;;;;;;;;;;;;17.34;46.23;101344.91;5036408;28;1242;-53
2023/06/05 03:26:32;;;;;;;;;;;;;;;17.22;46.00;101343.19;5018674;28;1103;-53
2023/06/05 03:28:58;;;;;;;;;;;;;;;18.00;46.55;101341.69;5027371;28;1351;-53
2023/06/05 03:31:25;;;;;;;;;;;;;;;17.60;47.15;101343.16;5038245;28;1981;-54
2023/06/05 03:33:51;;;;;;;;;;;;;;;17.33;46.59;101341.31;5038288;28;1219;-53
2023/06/05 03:36:19;;;;;;;;;;;;;;;17.50;46.80;101348.56;5055764;28;1239;-55
2023/06/05 03:38:47;;;;;;;;;;;;;;;17.85;47.19;101350.69;5039797;28;1624;-55
2023/06/05 03:41:13;;;;;;;;;;;;;;;17.51;46.62;101344.75;5039161;28;1355;-58
2023/06/05 03:43:39;;;;;;;;;;;;;;;17.24;46.12;101351.16;5031604;28;1150;-54
2023/06/05 03:46:05;;;;;;;;;;;;;;;17.31;45.70;101346.25;5042082;28;1211;-54
2023/06/05 03:48:31;;;;;;;;;;;;;;;18.11;46.79;101342.56;5041993;28;1240;-55
2023/06/05 03:50:57;;;;;;;;;;;;;;;17.65;47.06;101345.91;5037635;28;1914;-56
2023/06/05 03:53:23;;;;;;;;;;;;;;;17.43;46.41;101344.16;5038462;28;1243;-56
2023/06/05 03:55:52;;;;;;;;;;;;;;;17.35;45.75;101336.41;5036785;28;1309;-50
2023/06/05 03:58:23;;;;;;;;;;;;;;;17.15;45.62;101347.25;5041905;28;1111;-56
2023/06/05 04:00:53;;;;;;;;;;;;;;;17.19;46.10;101351.13;5041641;28;1130;-56
2023/06/05 04:03:20;;;;;;;;;;;;;;;17.69;46.65;101357.22;5041921;28;1164;-56
2023/06/05 04:05:49;;;;;;;;;;;;;;;17.38;46.55;101344.09;5034719;28;1220;-55
2023/06/05 04:08:15;;;;;;;;;;;;;;;17.30;45.96;101358.34;5041317;28;1063;-53
2023/06/05 04:10:40;;;;;;;;;;;;;;;17.21;45.35;101352.53;5041593;28;1976;-55
2023/06/05 04:13:06;;;;;;;;;;;;;;;17.15;45.18;101352.75;5041346;28;1120;-52
2023/06/05 04:15:33;;;;;;;;;;;;;;;17.76;45.84;101358.63;5037717;28;1254;-51
2023/06/05 04:18:00;;;;;;;;;;;;;;;17.55;46.90;101349.44;5041161;28;1294;-47
2023/06/05 04:20:26;;;;;;;;;;;;;;;17.31;46.55;101356.44;5041137;28;1318;-47
2023/06/05 04:22:53;;;;;;;;;;;;;;;17.20;45.88;101350.84;5028925;28;1405;-49
2023/06/05 04:25:19;;;;;;;;;;;;;;;17.19;45.51;101362.13;5040651;28;1068;-47
2023/06/05 04:27:49;;;;;;;;;;;;;;;18.23;46.24;101361.59;5039370;28;1315;-45
2023/06/05 04:30:14;;;;;;;;;;;;;;;17.54;46.95;101360.69;5028265;28;1914;-49
2023/06/05 04:32:41;;;;;;;;;;;;;;;17.27;46.74;101367.94;5036469;28;1246;-47
2023/06/05 04:35:10;;;;;;;;;;;;;;;17.23;46.09;101374.25;5040647;28;1229;-45
2023/06/05 04:37:37;;;;;;;;;;;;;;;17.79;47.09;101368.25;5039033;28;1518;-49
2023/06/05 04:40:05;;;;;;;;;;;;;;;17.42;47.07;101375.47;5038730;28;1123;-49
2023/06/05 04:42:32;;;;;;;;;;;;;;;17.15;46.84;101377.47;5038350;28;1195;-53
2023/06/05 04:44:58;;;;;;;;;;;;;;;17.18;46.16;101374.19;5040829;28;1175;-48
2023/06/05 04:47:25;;;;;;;;;;;;;;;17.14;45.71;101375.81;5036498;28;1249;-46
2023/06/05 04:49:52;;;;;;;;;;;;;;;17.13;45.28;101371.44;5026225;28;1984;-45
2023/06/05 04:52:24;;;;;;;;;;;;;;;17.03;45.35;101372.97;5037661;28;1311;-46
2023/06/05 04:54:51;;;;;;;;;;;;;;;18.00;46.49;101377.47;5028504;28;1176;-53
2023/06/05 04:57:18;;;;;;;;;;;;;;;18.10;46.64;101379.44;5033384;28;1080;-51
2023/06/05 04:59:44;;;;;;;;;;;;;;;18.24;46.56;101379.75;5034731;28;1235;-51
2023/06/05 05:02:12;;;;;;;;;;;;;;;17.76;47.78;101388.88;5036291;28;1167;-44
2023/06/05 05:04:39;;;;;;;;;;;;;;;17.61;48.41;101386.88;5037488;28;1257;-51
2023/06/05 05:07:05;;;;;;;;;;;;;;;17.41;49.01;101395.81;5035894;28;1552;-47
2023/06/05 05:09:31;;;;;;;;;;;;;;;17.27;49.42;101394.59;5033089;28;1993;-49
2023/06/05 05:11:58;;;;;;;;;;;;;;;17.24;49.53;101401.47;5035252;28;1540;-49
2023/06/05 05:14:24;;;;;;;;;;;;;;;17.12;50.03;101391.75;5030671;28;1600;-47
2023/06/05 05:16:50;;;;;;;;;;;;;;;17.04;50.53;101385.63;5037272;28;1212;-48
2023/06/05 05:19:15;;;;;;;;;;;;;;;16.95;50.54;101397.38;5035991;28;1568;-51
2023/06/05 05:21:41;;;;;;;;;;;;;;;16.92;50.78;101393.22;5038338;28;901;-54
2023/06/05 05:24:08;;;;;;;;;;;;;;;16.85;51.06;101400.81;5033868;28;1289;-47
2023/06/05 05:26:33;;;;;;;;;;;;;;;16.80;51.20;101400.75;5017003;28;1234;-49
2023/06/05 05:28:59;;;;;;;;;;;;;;;16.69;51.55;101397.94;5036251;28;1064;-50
2023/06/05 05:31:25;;;;;;;;;;;;;;;16.77;51.40;101405.69;5036136;28;1979;-45
2023/06/05 05:33:51;;;;;;;;;;;;;;;16.67;51.87;101402.84;5036873;28;1363;-47
2023/06/05 05:36:18;;;;;;;;;;;;;;;16.57;52.13;101402.72;5036206;28;978;-45
2023/06/05 05:38:43;;;;;;;;;;;;;;;16.51;52.23;101398.25;5036100;28;1309;-47
2023/06/05 05:41:09;;;;;;;;;;;;;;;16.51;52.26;101401.00;5036828;28;1169;-44
2023/06/05 05:43:35;;;;;;;;;;;;;;;16.51;52.48;101395.50;5036304;28;1593;-49
2023/06/05 05:46:00;;;;;;;;;;;;;;;16.41;52.60;101393.47;5036809;28;1605;-45
2023/06/05 05:48:26;;;;;;;;;;;;;;;16.38;52.45;101394.84;5047009;28;1178;-48
2023/06/05 05:50:51;;;;;;;;;;;;;;;16.37;52.68;101397.84;5057119;28;1906;-50
2023/06/05 05:53:17;;;;;;;;;;;;;;;16.30;52.96;101403.53;5057598;28;1124;-51
2023/06/05 05:55:42;;;;;;;;;;;;;;;16.28;52.92;101394.72;5028827;28;858;-44
2023/06/05 05:58:08;;;;;;;;;;;;;;;16.18;52.99;101403.66;5054577;28;1080;-47
2023/06/05 06:00:34;;;;;;;;;;;;;;;16.20;53.00;101392.41;5056323;28;1226;-45
2023/06/05 06:03:00;;;;;;;;;;;;;;;16.14;53.36;101385.22;5053059;28;1084;-50
2023/06/05 06:05:25;;;;;;;;;;;;;;;16.13;53.17;101384.41;5056750;28;1219;-53
2023/06/05 06:07:51;;;;;;;;;;;;;;;16.13;53.47;101391.78;5042350;28;847;-51
2023/06/05 06:10:16;;;;;;;;;;;;;;;16.09;53.46;101380.50;5054846;28;1985;-49
2023/06/05 06:12:44;;;;;;;;;;;;;;;16.03;53.80;101387.84;5056820;28;1353;-53
2023/06/05 06:15:09;;;;;;;;;;;;;;;16.03;53.79;101393.34;5056845;28;1140;-55
2023/06/05 06:17:35;;;;;;;;;;;;;;;16.25;53.52;101389.75;5056993;28;1195;-52
2023/06/05 06:20:02;;;;;;;;;;;;;;;17.40;51.21;101388.69;5052338;28;1207;-54
2023/06/05 06:22:28;;;;;;;;;;;;;;;16.89;53.15;101391.00;5037293;28;1226;-54
2023/06/05 06:24:54;;;;;;;;;;;;;;;16.73;53.92;101384.47;5042554;28;1219;-54
2023/06/05 06:27:21;;;;;;;;;;;;;;;16.55;54.43;101382.94;5056993;28;1040;-54
2023/06/05 06:29:47;;;;;;;;;;;;;;;16.43;54.38;101383.91;5056289;28;1906;-50
2023/06/05 06:32:13;;;;;;;;;;;;;;;16.33;54.38;101381.06;5055487;28;1033;-51
2023/06/05 06:34:38;;;;;;;;;;;;;;;16.27;54.75;101393.06;5046695;28;1135;-51
2023/06/05 06:37:04;;;;;;;;;;;;;;;16.19;54.69;101388.03;5045860;28;1385;-52
2023/06/05 06:39:29;;;;;;;;;;;;;;;16.15;54.56;101378.66;5054468;28;1215;-51
2023/06/05 06:41:57;;;;;;;;;;;;;;;16.16;54.49;101385.78;5054166;28;1290;-47
2023/06/05 06:44:23;;;;;;;;;;;;;;;16.11;54.55;101383.81;5045542;28;851;-53
2023/06/05 06:46:48;;;;;;;;;;;;;;;16.05;54.62;101391.16;5051566;28;1092;-51
2023/06/05 06:49:14;;;;;;;;;;;;;;;16.17;54.50;101391.03;5056279;28;1148;-53
2023/06/05 06:51:39;;;;;;;;;;;;;;;16.26;54.42;101391.41;5051145;28;1914;-53
2023/06/05 06:54:05;;;;;;;;;;;;;;;16.25;54.63;101400.72;5050779;28;1115;-53
2023/06/05 06:56:30;;;;;;;;;;;;;;;16.27;54.53;101395.81;5055884;28;982;-54
2023/06/05 06:58:56;;;;;;;;;;;;;;;16.23;55.03;101394.69;5056042;28;1132;-52
2023/06/05 07:01:23;;;;;;;;;;;;;;;16.08;55.39;101401.59;5056494;28;1143;-51
2023/06/05 07:03:49;;;;;;;;;;;;;;;16.10;55.34;101392.31;5056075;28;1155;-53
2023/06/05 07:06:15;;;;;;;;;;;;;;;17.56;52.87;101397.03;5038789;28;1258;-50
2023/06/05 07:08:40;;;;;;;;;;;;;;;16.87;54.62;101387.63;5055847;28;1037;-46
2023/06/05 07:11:06;;;;;;;;;;;;;;;16.55;55.53;101393.91;5056357;28;1974;-52
2023/06/05 07:13:31;;;;;;;;;;;;;;;16.40;55.66;101397.34;5054332;28;976;-50
2023/06/05 07:15:57;;;;;;;;;;;;;;;16.34;55.78;101403.84;5056141;28;1069;-52
2023/06/05 07:18:22;;;;;;;;;;;;;;;16.21;55.69;101396.81;5055472;28;1191;-54
2023/06/05 07:20:48;;;;;;;;;;;;;;;16.19;55.68;101390.78;5056271;28;1333;-51
2023/06/05 07:23:14;;;;;;;;;;;;;;;16.13;55.76;101391.78;5054673;28;1286;-50
2023/06/05 07:25:40;;;;;;;;;;;;;;;16.15;55.65;101387.72;5048351;28;1131;-50
2023/06/05 07:28:08;;;;;;;;;;;;;;;16.07;55.84;101388.16;5056243;28;1052;-49
2023/06/05 07:30:33;;;;;;;;;;;;;;;16.15;55.74;101384.97;5055722;28;1914;-51
2023/06/05 07:32:59;;;;;;;;;;;;;;;17.46;53.59;101389.53;5037162;28;1092;-48
2023/06/05 07:35:24;;;;;;;;;;;;;;;16.69;55.42;101384.19;5036369;28;1179;-52
2023/06/05 07:37:50;;;;;;;;;;;;;;;16.47;55.74;101389.72;5045648;28;1147;-51
2023/06/05 07:40:16;;;;;;;;;;;;;;;16.36;55.96;101388.78;5056451;28;1131;-47
2023/06/05 07:42:42;;;;;;;;;;;;;;;16.28;55.90;101381.00;5055411;28;1084;-50
2023/06/05 07:45:08;;;;;;;;;;;;;;;16.19;56.07;101388.03;5039005;28;1187;-46
2023/06/05 07:47:33;;;;;;;;;;;;;;;16.17;56.16;101376.47;5045784;28;1096;-52
2023/06/05 07:49:59;;;;;;;;;;;;;;;16.16;55.85;101383.03;5055327;28;1971;-44
2023/06/05 07:52:25;;;;;;;;;;;;;;;16.19;55.71;101380.63;5054104;28;905;-51
2023/06/05 07:54:51;;;;;;;;;;;;;;;16.12;55.72;101390.13;5055484;28;1197;-45
2023/06/05 07:57:17;;;;;;;;;;;;;;;16.06;55.62;101387.34;5042692;28;1092;-48
2023/06/05 07:59:43;;;;;;;;;;;;;;;16.02;55.56;101375.22;5055708;28;1048;-49
2023/06/05 08:02:08;;;;;;;;;;;;;;;15.99;55.57;101370.25;5055545;28;1224;-49
2023/06/05 08:04:35;;;;;;;;;;;;;;;16.06;55.67;101384.59;5055410;28;1012;-47
2023/06/05 08:07:00;;;;;;;;;;;;;;;16.15;55.46;101378.66;5055033;28;1147;-48
2023/06/05 08:09:26;;;;;;;;;;;;;;;16.18;55.65;101381.69;5048130;28;1901;-47
2023/06/05 08:11:51;;;;;;;;;;;;;;;16.18;56.07;101383.63;5055652;28;1196;-48
2023/06/05 08:14:17;;;;;;;;;;;;;;;16.17;56.12;101377.31;5038013;28;1234;-50
2023/06/05 08:16:43;;;;;;;;;;;;;;;16.16;56.14;101383.03;5051605;28;1344;-50
2023/06/05 08:19:08;;;;;;;;;;;;;;;16.25;56.01;101384.25;5043403;28;1223;-51
2023/06/05 08:21:34;;;;;;;;;;;;;;;16.22;56.21;101377.34;5055400;28;905;-51
2023/06/05 08:23:59;;;;;;;;;;;;;;;16.18;56.30;101373.47;5055829;28;1203;-48
2023/06/05 08:26:25;;;;;;;;;;;;;;;16.29;55.98;101379.91;5058170;28;1155;-50
2023/06/05 08:28:51;;;;;;;;;;;;;;;16.24;56.03;101382.59;5059102;28;999;-51
2023/06/05 08:31:16;;;;;;;;;;;;;;;16.14;56.13;101382.47;5058586;28;1910;-48
2023/06/05 08:33:42;;;;;;;;;;;;;;;16.12;55.83;101392.84;5041377;28;1195;-51
2023/06/05 08:36:08;;;;;;;;;;;;;;;16.06;55.84;101389.22;5059038;28;1110;-48
2023/06/05 08:38:33;;;;;;;;;;;;;;;16.01;55.89;101383.69;5058302;28;1246;-45
2023/06/05 08:41:02;;;;;;;;;;;;;;;15.99;55.94;101396.81;5058976;28;1127;-48
2023/06/05 08:43:28;;;;;;;;;;;;;;;15.94;55.66;101389.38;5058339;28;1040;-48
2023/06/05 08:45:53;;;;;;;;;;;;;;;15.86;55.95;101387.06;5045421;28;1067;-44
2023/06/05 08:48:20;;;;;;;;;;;;;;;15.85;55.86;101396.34;5037215;28;1181;-47
2023/06/05 08:50:46;;;;;;;;;;;;;;;15.88;55.50;101395.88;5038669;28;1910;-47
2023/06/05 08:53:12;;;;;;;;;;;;;;;15.85;55.59;101390.88;5037806;28;1314;-52
2023/06/05 08:55:38;;;;;;;;;;;;;;;15.81;55.53;101387.81;5035256;28;1452;-49
2023/06/05 08:58:04;;;;;;;;;;;;;;;15.77;55.60;101400.34;5017822;28;1199;-48
2023/06/05 09:00:30;;;;;;;;;;;;;;;15.73;55.39;101386.31;5020804;28;1178;-51
2023/06/05 09:02:56;;;;;;;;;;;;;;;15.73;55.48;101389.03;5037534;28;1088;-50
2023/06/05 09:05:21;;;;;;;;;;;;;;;15.70;55.35;101395.03;5038623;28;1163;-51
2023/06/05 09:07:47;;;;;;;;;;;;;;;15.65;55.62;101397.69;5038274;28;1074;-48
2023/06/05 09:10:22;;;;;;;;;;;;;;;16.95;55.54;101392.69;5035412;28;1902;-48
2023/06/05 09:12:57;;;;;;;;;;;;;;;16.70;56.24;101388.56;5037745;28;1110;-45
2023/06/05 09:15:26;;;;;;;;;;;;;;;16.32;56.81;101379.41;5038431;28;1023;-45
2023/06/05 09:18:02;;;;;;;;;;;;;;;16.12;56.63;101382.75;5037753;28;1274;-45
2023/06/05 09:20:29;;;;;;;;;;;;;;;16.07;56.69;101394.47;5032314;28;980;-49
2023/06/05 09:22:54;;;;;;;;;;;;;;;16.03;56.16;101385.09;5035813;28;943;-46
2023/06/05 09:25:20;;;;;;;;;;;;;;;15.99;56.05;101389.44;5038628;28;1546;-46
2023/06/05 09:27:53;;;;;;;;;;;;;;;15.91;55.89;101387.94;5038198;28;1067;-47
2023/06/05 09:30:19;;;;;;;;;;;;;;;15.92;55.83;101391.50;5036649;28;1918;-49
2023/06/05 09:32:44;;;;;;;;;;;;;;;15.86;55.64;101390.63;5030274;28;1122;-50
2023/06/05 09:35:12;;;;;;;;;;;;;;;15.82;55.86;101385.91;5018025;28;1084;-47
2023/06/05 09:37:38;;;;;;;;;;;;;;;15.80;55.59;101385.34;5024992;28;1020;-49
2023/06/05 09:40:08;;;;;;;;;;;;;;;15.79;55.51;101397.34;5037850;28;1118;-50
2023/06/05 09:42:34;;;;;;;;;;;;;;;15.76;55.38;101403.34;5037909;28;1074;-53
2023/06/05 09:45:00;;;;;;;;;;;;;;;15.73;55.40;101391.78;5035915;28;1056;-48
2023/06/05 09:47:25;;;;;;;;;;;;;;;16.40;55.79;101403.66;5041612;28;1208;-46
2023/06/05 09:49:51;;;;;;;;;;;;;;;17.31;54.91;101405.91;5057426;28;1980;-46
2023/06/05 09:52:16;;;;;;;;;;;;;;;16.60;56.52;101404.97;5058312;28;1211;-46
2023/06/05 09:54:44;;;;;;;;;;;;;;;16.36;56.68;101397.00;5057222;28;1183;-46
2023/06/05 09:57:10;;;;;;;;;;;;;;;16.18;56.55;101408.31;5049906;28;945;-46
2023/06/05 09:59:41;;;;;;;;;;;;;;;16.13;56.50;101398.13;5037837;28;1159;-47
2023/06/05 10:02:08;;;;;;;;;;;;;;;16.07;56.33;101410.94;5028215;28;1124;-47
2023/06/05 10:04:44;;;;;;;;;;;;;;;16.02;56.04;101402.63;5057199;28;1020;-47
2023/06/05 10:07:09;;;;;;;;;;;;;;;15.96;55.86;101400.91;5056999;28;1218;-49
2023/06/05 10:09:35;;;;;;;;;;;;;;;16.10;55.42;101387.63;5038457;28;2312;-44
2023/06/05 10:12:00;;;;;;;;;;;;;;;15.97;55.60;101399.81;5037852;28;992;-46
2023/06/05 10:14:26;;;;;;;;;;;;;;;15.88;55.57;101395.88;5054128;28;1306;-46
2023/06/05 10:16:52;;;;;;;;;;;;;;;15.89;55.47;101386.53;5053569;28;1437;-46
2023/06/05 10:19:20;;;;;;;;;;;;;;;15.84;55.53;101375.53;5056922;28;1258;-47
2023/06/05 10:21:49;;;;;;;;;;;;;;;15.78;55.67;101390.19;5047293;28;1001;-46
2023/06/05 10:24:35;;;;;;;;;;;;;;;15.81;55.48;101389.72;5056729;28;1226;-50
2023/06/05 10:27:18;;;;;;;;;;;;;;;17.24;54.96;101401.47;5052829;28;1448;-51
2023/06/05 10:30:02;;;;;;;;;;;;;;;16.82;56.13;101401.34;5057000;28;1973;-46
2023/06/05 10:32:28;;;;;;;;;;;;;;;16.38;56.64;101396.75;5044976;28;1032;-49
2023/06/05 10:35:12;;;;;;;;;;;;;;;16.29;56.38;101390.88;5057127;28;1083;-50
2023/06/05 10:37:40;;;;;;;;;;;;;;;16.18;56.49;101397.34;5044145;28;1047;-48
2023/06/05 10:40:06;;;;;;;;;;;;;;;16.13;56.21;101402.75;5056474;28;1024;-47
2023/06/05 10:42:33;;;;;;;;;;;;;;;16.05;55.95;101393.91;5056120;28;1134;-49
2023/06/05 10:44:58;;;;;;;;;;;;;;;16.03;55.69;101392.47;5054356;28;1008;-47
2023/06/05 10:47:33;;;;;;;;;;;;;;;16.02;55.60;101396.31;5025819;28;1153;-45
2023/06/05 10:50:25;;;;;;;;;;;;;;;15.96;55.66;101394.59;5051583;28;1963;-45
2023/06/05 10:52:51;;;;;;;;;;;;;;;15.95;55.57;101390.19;5054479;28;1765;-47
2023/06/05 10:55:17;;;;;;;;;;;;;;;15.83;55.69;101401.28;5056291;28;1147;-44
2023/06/05 10:58:00;;;;;;;;;;;;;;;15.80;55.63;101393.56;5043887;28;851;-45
2023/06/05 11:00:29;;;;;;;;;;;;;;;15.82;55.53;101381.28;5045376;28;1072;-45
2023/06/05 11:02:55;;;;;;;;;;;;;;;15.83;55.35;101384.84;5056257;28;1071;-47
2023/06/05 11:05:21;;;;;;;;;;;;;;;15.78;55.32;101373.75;5038512;28;1096;-49
2023/06/05 11:07:46;;;;;;;;;;;;;;;15.76;55.47;101370.44;5055974;28;1118;-46
2023/06/05 11:10:17;;;;;;;;;;;;;;;16.67;55.30;101372.63;5045839;28;1965;-45
2023/06/05 11:12:43;;;;;;;;;;;;;;;16.84;55.49;101375.25;5053351;28;1246;-45
2023/06/05 11:15:36;;;;;;;;;;;;;;;16.38;56.21;101383.88;5055402;28;1059;-45
2023/06/05 11:18:20;;;;;;;;;;;;;;;16.20;56.27;101376.81;5053074;28;1644;-49
2023/06/05 11:20:45;;;;;;;;;;;;;;;16.07;56.29;101375.28;5053893;28;1231;-42
2023/06/05 11:23:11;;;;;;;;;;;;;;;16.02;56.08;101382.59;5035977;28;1172;-45
2023/06/05 11:25:38;;;;;;;;;;;;;;;15.96;55.73;101398.16;5043508;28;1183;-43
2023/06/05 11:28:09;;;;;;;;;;;;;;;15.90;55.90;101394.50;5039208;28;1143;-43
2023/06/05 11:30:40;;;;;;;;;;;;;;;15.89;55.42;101390.13;5056487;28;1887;-51
2023/06/05 11:33:09;;;;;;;;;;;;;;;15.88;55.34;101393.94;5055811;28;1163;-50
2023/06/05 11:35:35;;;;;;;;;;;;;;;15.80;55.28;101382.59;5042878;28;1159;-45
2023/06/05 11:38:07;;;;;;;;;;;;;;;15.77;55.36;101380.31;5044770;28;1152;-47
2023/06/05 11:40:33;;;;;;;;;;;;;;;15.71;55.62;101377.50;5041878;28;1105;-45
2023/06/05 11:43:03;;;;;;;;;;;;;;;16.84;55.05;101374.44;5056155;28;1048;-45
2023/06/05 11:45:28;;;;;;;;;;;;;;;16.95;55.30;101367.16;5049730;28;1199;-46
2023/06/05 11:48:03;;;;;;;;;;;;;;;16.44;56.47;101376.53;5048961;28;1721;-47
2023/06/05 11:50:30;;;;;;;;;;;;;;;16.23;56.46;101376.28;5053889;28;1910;-44
2023/06/05 11:53:03;;;;;;;;;;;;;;;16.12;56.15;101379.16;5054807;28;1128;-44
2023/06/05 11:55:42;;;;;;;;;;;;;;;16.07;56.04;101374.44;5049962;28;925;-50
2023/06/05 11:58:08;;;;;;;;;;;;;;;16.07;55.88;101372.53;5052069;28;1047;-49
2023/06/05 12:00:34;;;;;;;;;;;;;;;16.01;55.75;101354.34;5031316;28;1135;-48
2023/06/05 12:02:59;;;;;;;;;;;;;;;15.90;55.86;101372.56;5055955;28;1206;-46
2023/06/05 12:05:25;;;;;;;;;;;;;;;15.91;55.41;101378.91;5044374;28;1287;-49
2023/06/05 12:07:51;;;;;;;;;;;;;;;16.32;55.94;101384.06;5059623;28;1272;-46
2023/06/05 12:10:16;;;;;;;;;;;;;;;17.29;54.82;101386.91;5058978;28;1910;-46
2023/06/05 12:12:53;;;;;;;;;;;;;;;16.58;56.25;101387.94;5047682;28;1191;-43
2023/06/05 12:15:19;;;;;;;;;;;;;;;16.30;56.65;101384.31;5059001;28;1021;-48
2023/06/05 12:17:48;;;;;;;;;;;;;;;16.22;56.32;101382.84;5059335;28;1214;-46
2023/06/05 12:20:14;;;;;;;;;;;;;;;16.11;56.19;101388.47;5052564;28;1112;-50
2023/06/05 12:22:40;;;;;;;;;;;;;;;16.11;56.03;101385.75;5024186;28;883;-48
2023/06/05 12:25:16;;;;;;;;;;;;;;;16.02;55.83;101385.34;5059535;28;1183;-45
2023/06/05 12:27:42;;;;;;;;;;;;;;;15.96;55.96;101375.41;5059009;28;1036;-47
2023/06/05 12:30:07;;;;;;;;;;;;;;;15.94;55.71;101397.59;5050988;28;1910;-46
2023/06/05 12:32:33;;;;;;;;;;;;;;;15.91;55.67;101389.88;5053624;28;1106;-50
2023/06/05 12:34:58;;;;;;;;;;;;;;;15.89;55.27;101398.38;5046237;28;882;-45
2023/06/05 12:37:29;;;;;;;;;;;;;;;15.87;55.16;101389.53;5058658;28;1076;-46
2023/06/05 12:39:58;;;;;;;;;;;;;;;15.85;55.38;101388.13;5058703;28;1056;-45
2023/06/05 12:42:24;;;;;;;;;;;;;;;15.79;55.31;101397.34;5058604;28;1179;-46
2023/06/05 12:44:50;;;;;;;;;;;;;;;15.73;55.23;101390.97;5059285;28;1099;-45
2023/06/05 12:47:15;;;;;;;;;;;;;;;16.14;55.67;101383.28;5051218;28;1118;-46